Time;durP1;ratioP1;P1;durP2;ratioP2;P2;SDS_P1;SDS_P2;PMS_P1;PMS_P2;Temp;Humidity;BMP_temperature;BMP_pressure;BME280_temperature;BME280_humidity;BME280_pressure;Samples;Min_cycle;Max_cycle;Signal;HPM_P1;HPM_P2
2022/03/09 00:01:45;;;;;;;4.67;2.85;;;;;;;-2.47;100.00;147060.50;1787785;79;20834;-58
2022/03/09 00:04:12;;;;;;;5.60;3.17;;;;;;;-2.46;100.00;147063.06;1786509;78;21845;-58
2022/03/09 00:06:41;;;;;;;5.37;3.20;;;;;;;-2.45;100.00;147065.63;1787492;79;21407;-66
2022/03/09 00:09:10;;;;;;;6.37;3.47;;;;;;;-2.45;100.00;147066.88;1817232;78;21031;-58
2022/03/09 00:11:38;;;;;;;5.55;3.20;;;;;;;-2.45;100.00;147065.63;1768984;80;20916;-59
2022/03/09 00:14:06;;;;;;;4.78;2.95;;;;;;;-2.46;100.00;147063.06;1781146;80;21650;-59
2022/03/09 00:16:33;;;;;;;6.85;3.25;;;;;;;-2.46;100.00;147063.06;1781132;80;21415;-57
2022/03/09 00:19:02;;;;;;;4.40;3.02;;;;;;;-2.46;100.00;147063.06;1774328;79;21103;-58
2022/03/09 00:21:29;;;;;;;4.42;2.83;;;;;;;-2.46;100.00;147063.06;1769020;81;21031;-65
2022/03/09 00:23:58;;;;;;;6.22;3.70;;;;;;;-2.45;100.00;147065.63;1768710;81;21208;-59
2022/03/09 00:26:25;;;;;;;7.28;3.40;;;;;;;-2.44;100.00;147068.19;1771278;79;21121;-58
2022/03/09 00:28:52;;;;;;;5.25;3.20;;;;;;;-2.43;100.00;147070.75;1773921;79;21236;-65
2022/03/09 00:31:19;;;;;;;5.87;3.33;;;;;;;-2.42;100.00;147073.31;1754269;81;21111;-58
2022/03/09 00:33:46;;;;;;;6.28;3.17;;;;;;;-2.42;100.00;147073.31;1721039;83;21127;-65
2022/03/09 00:36:13;;;;;;;5.05;3.20;;;;;;;-2.42;100.00;147072.06;1720557;83;21094;-58
2022/03/09 00:38:41;;;;;;;6.28;3.40;;;;;;;-2.42;100.00;147073.31;1721402;81;21000;-57
2022/03/09 00:41:08;;;;;;;7.28;3.65;;;;;;;-2.40;100.00;147077.20;1720465;83;21933;-58
2022/03/09 00:43:36;;;;;;;5.28;3.30;;;;;;;-2.40;100.00;147078.45;1721026;83;21081;-65
2022/03/09 00:46:03;;;;;;;6.25;3.92;;;;;;;-2.40;100.00;147078.45;1721592;83;21683;-64
2022/03/09 00:48:31;;;;;;;7.95;4.00;;;;;;;-2.40;100.00;147078.45;1721285;83;21126;-64
2022/03/09 00:50:58;;;;;;;7.00;3.75;;;;;;;-2.43;100.00;147070.75;1721979;83;21072;-64
2022/03/09 00:53:25;;;;;;;7.08;3.60;;;;;;;-2.44;100.00;147068.19;1693333;83;21609;-65
2022/03/09 00:55:53;;;;;;;6.62;4.10;;;;;;;-2.42;100.00;147073.31;1721710;83;21104;-58
2022/03/09 00:58:20;;;;;;;6.25;3.55;;;;;;;-2.40;100.00;147077.20;1721988;83;21171;-64
2022/03/09 01:00:48;;;;;;;7.08;4.00;;;;;;;-2.38;100.00;147082.33;1721802;83;21056;-64
2022/03/09 01:03:16;;;;;;;7.37;4.00;;;;;;;-2.37;100.00;147086.16;1721373;83;21090;-64
2022/03/09 01:05:43;;;;;;;8.25;4.12;;;;;;;-2.36;100.00;147088.72;1721835;81;20944;-64
2022/03/09 01:08:12;;;;;;;7.40;3.92;;;;;;;-2.33;100.00;147096.42;1721491;83;21105;-57
2022/03/09 01:10:40;;;;;;;7.72;4.58;;;;;;;-2.28;100.00;147106.75;1724568;82;21067;-57
2022/03/09 01:13:07;;;;;;;8.35;4.40;;;;;;;-2.26;100.00;147111.87;1723492;83;21068;-65
2022/03/09 01:15:35;;;;;;;6.83;4.17;;;;;;;-2.25;100.00;147114.44;1736449;82;21282;-64
2022/03/09 01:18:02;;;;;;;7.62;4.00;;;;;;;-2.24;100.00;147118.27;1755251;81;21934;-64
2022/03/09 01:20:29;;;;;;;8.13;4.42;;;;;;;-2.23;100.00;147119.56;1755335;81;21015;-64
2022/03/09 01:22:56;;;;;;;6.70;4.05;;;;;;;-2.21;100.00;147124.70;1755298;81;20948;-64
2022/03/09 01:25:23;;;;;;;8.70;4.60;;;;;;;-2.21;100.00;147124.70;1755301;81;20928;-57
2022/03/09 01:27:50;;;;;;;8.15;3.60;;;;;;;-2.21;100.00;147124.70;1736788;81;21009;-58
2022/03/09 01:30:18;;;;;;;5.30;3.83;;;;;;;-2.14;100.00;147142.67;1734012;81;20944;-64
2022/03/09 01:32:45;;;;;;;7.58;3.90;;;;;;;-2.10;100.00;147151.69;1732709;82;20972;-58
2022/03/09 01:35:12;;;;;;;6.05;3.35;;;;;;;-2.10;100.00;147152.98;1732332;82;21076;-58
2022/03/09 01:37:42;;;;;;;5.72;3.65;;;;;;;-2.09;100.00;147155.56;1732756;81;21295;-57
2022/03/09 01:40:18;;;;;;;6.03;3.05;;;;;;;-2.10;100.00;147152.98;1732552;82;21556;-58
2022/03/09 01:42:46;;;;;;;4.78;3.15;;;;;;;-2.09;100.00;147155.56;1732810;82;21186;-58
2022/03/09 01:45:14;;;;;;;4.85;3.30;;;;;;;-2.07;100.00;147159.39;1732349;82;21048;-57
2022/03/09 01:47:41;;;;;;;6.60;3.40;;;;;;;-2.07;100.00;147159.39;1732901;82;20941;-64
2022/03/09 01:50:09;;;;;;;4.80;3.17;;;;;;;-2.04;100.00;147168.39;1732666;82;20984;-65
2022/03/09 01:52:37;;;;;;;5.28;3.22;;;;;;;-2.04;100.00;147168.39;1732717;81;21965;-64
2022/03/09 01:55:06;;;;;;;4.70;3.10;;;;;;;-2.02;100.00;147172.22;1732718;82;21540;-65
2022/03/09 01:57:33;;;;;;;6.47;3.40;;;;;;;-2.03;100.00;147170.97;1732624;82;21072;-65
2022/03/09 02:00:00;;;;;;;5.15;3.60;;;;;;;-2.04;100.00;147168.39;1732653;81;21301;-65
2022/03/09 02:02:27;;;;;;;5.80;3.10;;;;;;;-2.03;100.00;147170.97;1732920;81;21520;-64
2022/03/09 02:04:54;;;;;;;6.50;3.72;;;;;;;-2.03;100.00;147170.97;1732314;82;20976;-64
2022/03/09 02:09:41;;;;;;;5.08;3.62;;;;;;;-1.99;100.00;147178.66;1732907;82;21506;-58
2022/03/09 02:09:52;;;;;;;6.37;3.80;;;;;;;-1.98;100.00;147181.23;1734523;81;21008;-57
2022/03/09 02:12:21;;;;;;;8.43;3.75;;;;;;;-1.98;100.00;147182.53;1739106;81;21023;-57
2022/03/09 02:14:51;;;;;;;5.92;3.27;;;;;;;-1.97;100.00;147185.11;1736476;81;21518;-64
2022/03/09 02:17:22;;;;;;;6.65;3.60;;;;;;;-1.94;100.00;147191.50;1736411;81;21218;-64
2022/03/09 02:19:50;;;;;;;6.58;3.80;;;;;;;-1.93;100.00;147194.06;1736516;80;21511;-64
2022/03/09 02:22:33;;;;;;;6.03;3.70;;;;;;;-1.91;100.00;147199.20;1736101;81;21095;-57
2022/03/09 02:25:04;;;;;;;5.87;3.83;;;;;;;-1.89;100.00;147204.34;1736552;81;21067;-58
2022/03/09 02:27:32;;;;;;;6.70;3.80;;;;;;;-1.86;100.00;147212.09;1736552;81;21063;-64
2022/03/09 02:29:59;;;;;;;6.22;3.85;;;;;;;-1.86;100.00;147212.09;1734330;81;21072;-57
2022/03/09 02:32:26;;;;;;;6.90;3.70;;;;;;;-1.86;100.00;147212.09;1732299;81;21539;-57
2022/03/09 02:34:53;;;;;;;6.97;4.10;;;;;;;-1.90;100.00;147201.77;1732313;81;21359;-62
2022/03/09 02:37:21;;;;;;;6.35;3.52;;;;;;;-1.93;100.00;147194.06;1731947;81;21150;-64
2022/03/09 02:39:49;;;;;;;6.55;3.52;;;;;;;-1.97;100.00;147183.80;1708901;82;21064;-63
2022/03/09 02:42:16;;;;;;;6.15;3.40;;;;;;;-2.02;100.00;147173.53;1731868;81;21126;-59
2022/03/09 02:44:43;;;;;;;5.87;3.67;;;;;;;-2.07;100.00;147160.69;1731690;81;21310;-57
2022/03/09 02:47:10;;;;;;;5.08;3.47;;;;;;;-2.10;100.00;147151.69;1731581;81;21064;-57
2022/03/09 02:49:38;;;;;;;6.85;3.65;;;;;;;-2.13;100.00;147143.98;1731952;81;21147;-57
2022/03/09 02:52:05;;;;;;;6.70;3.95;;;;;;;-2.19;100.00;147129.84;1731596;82;21099;-57
2022/03/09 02:54:34;;;;;;;8.20;4.12;;;;;;;-2.23;100.00;147120.83;1731761;82;21075;-57
2022/03/09 02:57:03;;;;;;;5.67;3.50;;;;;;;-2.27;100.00;147110.56;1731303;81;21637;-57
2022/03/09 02:59:30;;;;;;;6.22;3.45;;;;;;;-2.28;100.00;147106.75;1731628;82;21064;-57
2022/03/09 03:01:57;;;;;;;7.08;3.60;;;;;;;-2.31;100.00;147101.59;1731553;82;21001;-58
2022/03/09 03:04:24;;;;;;;7.03;3.30;;;;;;;-2.32;100.00;147097.73;1731510;81;21091;-57
2022/03/09 03:06:52;;;;;;;7.58;3.92;;;;;;;-2.32;100.00;147097.73;1732331;82;21040;-57
2022/03/09 03:09:20;;;;;;;7.45;3.98;;;;;;;-2.33;100.00;147096.42;1734348;81;22075;-57
2022/03/09 03:11:47;;;;;;;8.20;3.72;;;;;;;-2.34;100.00;147093.86;1748758;81;21083;-57
2022/03/09 03:14:16;;;;;;;7.62;3.65;;;;;;;-2.35;100.00;147091.28;1736282;82;21044;-57
2022/03/09 03:16:43;;;;;;;6.87;3.75;;;;;;;-2.36;100.00;147088.72;1736798;82;21580;-57
2022/03/09 03:19:10;;;;;;;8.23;4.08;;;;;;;-2.35;100.00;147091.28;1736350;81;21115;-57
2022/03/09 03:21:37;;;;;;;6.03;3.92;;;;;;;-2.33;100.00;147096.42;1736724;82;23238;-56
2022/03/09 03:24:06;;;;;;;7.47;4.37;;;;;;;-2.32;100.00;147099.03;1736144;82;21060;-57
2022/03/09 03:26:34;;;;;;;9.50;4.83;;;;;;;-2.30;100.00;147102.86;1736551;80;21128;-58
2022/03/09 03:29:02;;;;;;;7.03;3.80;;;;;;;-2.31;100.00;147101.59;1735862;82;21370;-57
2022/03/09 03:31:31;;;;;;;7.22;4.30;;;;;;;-2.31;100.00;147101.59;1728320;83;21084;-57
2022/03/09 03:33:58;;;;;;;8.35;4.25;;;;;;;-2.29;100.00;147104.17;1728306;81;21249;-57
2022/03/09 03:36:25;;;;;;;6.22;4.00;;;;;;;-2.31;100.00;147100.30;1728223;81;20964;-58
2022/03/09 03:38:53;;;;;;;7.55;4.05;;;;;;;-2.32;100.00;147099.03;1728657;83;21060;-57
2022/03/09 03:41:20;;;;;;;6.92;3.92;;;;;;;-2.33;100.00;147096.42;1728389;83;21042;-57
2022/03/09 03:43:47;;;;;;;7.35;3.77;;;;;;;-2.33;100.00;147096.42;1728599;81;21036;-57
2022/03/09 03:46:14;;;;;;;6.75;4.15;;;;;;;-2.35;100.00;147090.03;1728375;81;21244;-57
2022/03/09 03:48:42;;;;;;;7.83;3.72;;;;;;;-2.36;100.00;147087.47;1728630;81;21037;-56
2022/03/09 03:51:10;;;;;;;7.58;3.80;;;;;;;-2.39;100.00;147081.03;1727726;82;20983;-57
2022/03/09 03:53:38;;;;;;;6.45;4.25;;;;;;;-2.41;100.00;147075.89;1723829;81;21044;-57
2022/03/09 03:56:06;;;;;;;7.37;4.03;;;;;;;-2.40;100.00;147078.45;1732392;81;21008;-57
2022/03/09 03:58:34;;;;;;;7.83;4.08;;;;;;;-2.39;100.00;147081.03;1722698;82;21091;-63
2022/03/09 04:01:01;;;;;;;7.05;4.17;;;;;;;-2.36;100.00;147087.47;1722322;83;22106;-63
2022/03/09 04:03:29;;;;;;;8.38;4.47;;;;;;;-2.32;100.00;147097.73;1721808;82;21563;-64
2022/03/09 04:05:56;;;;;;;7.25;4.55;;;;;;;-2.28;100.00;147106.75;1722056;82;21016;-63
2022/03/09 04:08:23;;;;;;;6.80;4.25;;;;;;;-2.25;100.00;147115.70;1721903;83;21412;-57
2022/03/09 04:10:51;;;;;;;8.73;4.50;;;;;;;-2.22;100.00;147123.41;1754013;79;21026;-58
2022/03/09 04:13:18;;;;;;;9.08;4.28;;;;;;;-2.20;100.00;147127.28;1736555;82;21046;-57
2022/03/09 04:15:45;;;;;;;9.35;5.50;;;;;;;-2.18;100.00;147132.41;1736963;81;21509;-57
2022/03/09 04:18:12;;;;;;;7.25;4.58;;;;;;;-2.15;100.00;147140.11;1736464;81;21016;-57
2022/03/09 04:20:39;;;;;;;8.73;4.65;;;;;;;-2.13;100.00;147145.25;1736938;81;21563;-58
2022/03/09 04:23:08;;;;;;;7.50;4.20;;;;;;;-2.11;100.00;147150.37;1736313;81;21192;-58
2022/03/09 04:25:39;;;;;;;7.30;3.92;;;;;;;-2.07;100.00;147159.39;1736752;82;21079;-57
2022/03/09 04:28:07;;;;;;;8.40;4.10;;;;;;;-2.07;100.00;147160.69;1736601;81;21337;-56
2022/03/09 04:30:36;;;;;;;8.35;4.33;;;;;;;-2.06;100.00;147163.27;1733987;81;21095;-57
2022/03/09 04:33:04;;;;;;;7.12;3.95;;;;;;;-2.06;100.00;147163.27;1732742;81;21043;-57
2022/03/09 04:35:31;;;;;;;7.28;4.65;;;;;;;-2.06;100.00;147163.27;1732764;82;21473;-57
2022/03/09 04:37:59;;;;;;;7.35;4.92;;;;;;;-2.00;100.00;147176.09;1732580;82;21040;-57
2022/03/09 04:40:27;;;;;;;7.08;4.22;;;;;;;-1.98;100.00;147181.23;1732586;81;21024;-63
2022/03/09 04:42:54;;;;;;;6.45;3.70;;;;;;;-1.95;100.00;147188.94;1732800;81;21262;-63
2022/03/09 04:45:21;;;;;;;8.10;4.37;;;;;;;-1.92;100.00;147196.64;1732370;81;21047;-64
2022/03/09 04:47:48;;;;;;;7.67;4.78;;;;;;;-1.89;100.00;147204.34;1732739;81;21580;-63
2022/03/09 04:50:16;;;;;;;7.42;4.08;;;;;;;-1.87;100.00;147209.53;1732324;82;21588;-63
2022/03/09 04:52:43;;;;;;;7.15;4.60;;;;;;;-1.83;100.00;147219.80;1732829;82;21612;-64
2022/03/09 04:55:11;;;;;;;8.73;5.00;;;;;;;-1.80;100.00;147227.50;1732485;82;21015;-64
2022/03/09 04:57:38;;;;;;;8.30;4.75;;;;;;;-1.75;100.00;147240.34;1733013;82;21043;-64
2022/03/09 05:00:08;;;;;;;6.40;4.30;;;;;;;-1.69;100.00;147253.17;1732315;82;21685;-63
2022/03/09 05:02:36;;;;;;;7.00;4.47;;;;;;;-1.67;100.00;147258.31;1733048;81;21051;-63
2022/03/09 05:05:05;;;;;;;6.65;4.65;;;;;;;-1.63;100.00;147269.89;1731558;81;21071;-63
2022/03/09 05:07:34;;;;;;;7.65;4.60;;;;;;;-1.60;100.00;147276.34;1732927;81;21056;-62
2022/03/09 05:10:01;;;;;;;7.92;4.80;;;;;;;-1.56;100.00;147286.61;1738537;81;21039;-63
2022/03/09 05:12:30;;;;;;;10.15;4.33;;;;;;;-1.56;100.00;147286.61;1737710;81;21386;-63
2022/03/09 05:14:59;;;;;;;7.10;4.22;;;;;;;-1.54;100.00;147291.75;1735922;82;20885;-63
2022/03/09 05:17:26;;;;;;;7.05;4.37;;;;;;;-1.49;100.00;147304.59;1736528;81;21091;-63
2022/03/09 05:19:53;;;;;;;6.95;4.50;;;;;;;-1.46;100.00;147312.30;1736812;81;20989;-63
2022/03/09 05:22:20;;;;;;;9.80;4.40;;;;;;;-1.41;100.00;147322.63;1736574;82;21067;-63
2022/03/09 05:24:47;;;;;;;8.50;4.60;;;;;;;-1.37;100.00;147332.89;1736624;81;23136;-64
2022/03/09 05:27:15;;;;;;;7.20;4.33;;;;;;;-1.32;100.00;147347.05;1737848;80;21071;-64
2022/03/09 05:29:42;;;;;;;8.88;4.58;;;;;;;-1.27;100.00;147358.58;1745949;82;21015;-63
2022/03/09 05:32:09;;;;;;;10.20;5.17;;;;;;;-1.25;100.00;147362.47;1743521;82;21200;-63
2022/03/09 05:34:38;;;;;;;6.35;4.50;;;;;;;-1.24;100.00;147366.28;1743700;81;21110;-63
2022/03/09 05:37:05;;;;;;;8.05;4.55;;;;;;;-1.23;100.00;147368.86;1744097;82;21437;-63
2022/03/09 05:39:33;;;;;;;7.50;4.15;;;;;;;-1.22;100.00;147370.16;1743687;82;21071;-64
2022/03/09 05:42:00;;;;;;;6.60;3.83;;;;;;;-1.20;100.00;147376.61;1743684;81;21039;-63
2022/03/09 05:44:27;;;;;;;6.85;3.62;;;;;;;-1.19;100.00;147377.88;1743359;81;21497;-64
2022/03/09 05:46:54;;;;;;;5.40;3.80;;;;;;;-1.18;100.00;147381.75;1743937;81;21083;-63
2022/03/09 05:49:22;;;;;;;7.37;4.65;;;;;;;-1.20;100.00;147375.30;1743736;81;21565;-63
2022/03/09 05:51:52;;;;;;;7.05;3.98;;;;;;;-1.22;100.00;147371.42;1743716;81;20971;-63
2022/03/09 05:54:22;;;;;;;6.03;3.62;;;;;;;-1.22;100.00;147370.16;1777820;80;21090;-63
2022/03/09 05:56:49;;;;;;;6.12;3.77;;;;;;;-1.23;100.00;147368.86;1778550;80;21440;-63
2022/03/09 05:59:17;;;;;;;4.72;3.65;;;;;;;-1.24;100.00;147366.28;1777710;80;21057;-63
2022/03/09 06:01:44;;;;;;;6.20;3.40;;;;;;;-1.18;100.00;147381.75;1778130;80;21129;-64
2022/03/09 06:04:11;;;;;;;5.95;3.92;;;;;;;-1.11;100.00;147397.17;1777988;80;21125;-64
2022/03/09 06:06:39;;;;;;;6.62;3.72;;;;;;;-1.06;100.00;147410.02;1778127;80;21031;-64
2022/03/09 06:09:07;;;;;;;7.47;3.70;;;;;;;-1.01;100.00;147422.86;1778342;80;21276;-57
2022/03/09 06:11:34;;;;;;;7.15;4.20;;;;;;;-0.96;100.00;147434.44;1731921;80;21041;-58
2022/03/09 06:14:02;;;;;;;5.58;3.37;;;;;;;-0.92;100.00;147446.03;1728230;83;21503;-58
2022/03/09 06:16:29;;;;;;;6.47;4.00;;;;;;;-0.88;100.00;147456.31;1746809;82;21104;-56
2022/03/09 06:18:57;;;;;;;8.00;3.70;;;;;;;-0.87;100.00;147457.63;1747068;81;20881;-58
2022/03/09 06:21:24;;;;;;;6.45;3.58;;;;;;;-0.88;100.00;147456.31;1746990;80;21495;-57
2022/03/09 06:23:52;;;;;;;6.30;3.77;;;;;;;-0.90;100.00;147449.86;1747211;81;21020;-58
2022/03/09 06:26:19;;;;;;;6.05;3.65;;;;;;;-0.91;100.00;147448.59;1747038;82;21111;-62
2022/03/09 06:28:46;;;;;;;6.05;3.50;;;;;;;-0.89;100.00;147453.75;1747290;80;21013;-63
2022/03/09 06:31:13;;;;;;;6.30;3.55;;;;;;;-0.84;100.00;147465.34;1738803;80;21345;-63
2022/03/09 06:33:41;;;;;;;6.00;3.12;;;;;;;-0.81;100.00;147473.05;1738850;82;21035;-63
2022/03/09 06:36:08;;;;;;;7.35;3.90;;;;;;;-0.78;100.00;147480.75;1738525;80;21356;-63
2022/03/09 06:38:36;;;;;;;6.45;3.45;;;;;;;-0.74;100.00;147489.77;1738446;80;21390;-63
2022/03/09 06:41:03;;;;;;;5.87;2.98;;;;;;;-0.73;100.00;147493.59;1707408;82;21000;-64
2022/03/09 06:43:32;;;;;;;5.20;3.20;;;;;;;-0.72;100.00;147496.17;1737934;80;21111;-64
2022/03/09 06:45:59;;;;;;;5.90;3.15;;;;;;;-0.73;100.00;147492.34;1738465;80;21048;-63
2022/03/09 06:48:26;;;;;;;6.42;3.77;;;;;;;-0.69;100.00;147501.31;1738420;82;21087;-64
2022/03/09 06:50:53;;;;;;;4.85;2.80;;;;;;;-0.65;100.00;147512.91;1739762;80;21172;-57
2022/03/09 06:53:20;;;;;;;4.95;3.25;;;;;;;-0.58;100.00;147530.91;1738092;80;21051;-57
2022/03/09 06:55:48;;;;;;;6.78;3.40;;;;;;;-0.50;100.00;147548.94;1738684;80;21094;-57
2022/03/09 06:58:15;;;;;;;4.15;2.87;;;;;;;-0.46;100.00;147559.22;1738352;80;21051;-58
2022/03/09 07:00:42;;;;;;;7.35;3.40;;;;;;;-0.45;100.00;147561.80;1738695;82;21521;-58
2022/03/09 07:03:09;;;;;;;4.62;2.80;;;;;;;-0.45;100.00;147561.80;1738363;82;21105;-58
2022/03/09 07:05:37;;;;;;;4.95;3.05;;;;;;;-0.49;100.00;147552.77;1738579;82;21087;-57
2022/03/09 07:08:05;;;;;;;5.33;3.10;;;;;;;-0.44;100.00;147564.36;1738858;81;21052;-58
2022/03/09 07:10:33;;;;;;;4.47;3.08;;;;;;;-0.40;100.00;147573.37;1755907;80;21128;-57
2022/03/09 07:13:02;;;;;;;5.12;2.90;;;;;;;-0.36;100.00;147583.67;1746875;81;21003;-57
2022/03/09 07:15:29;;;;;;;5.65;3.12;;;;;;;-0.36;100.00;147584.94;1746967;81;21236;-58
2022/03/09 07:17:57;;;;;;;6.75;3.65;;;;;;;-0.36;100.00;147584.94;1746961;80;21106;-57
2022/03/09 07:20:25;;;;;;;7.70;3.22;;;;;;;-0.30;100.00;147600.41;1747027;82;21019;-57
2022/03/09 07:22:54;;;;;;;5.22;3.33;;;;;;;-0.28;100.00;147602.97;1747298;82;37634;-57
2022/03/09 07:25:21;;;;;;;6.08;3.37;;;;;;;-0.32;100.00;147593.95;1746734;82;21026;-57
2022/03/09 07:27:48;;;;;;;5.95;2.62;;;;;;;-0.36;100.00;147583.67;1746234;80;21421;-57
2022/03/09 07:30:15;;;;;;;3.72;2.27;;;;;;;-0.39;100.00;147577.22;1731346;81;21071;-57
2022/03/09 07:32:43;;;;;;;4.80;3.00;;;;;;;-0.41;100.00;147572.08;1728545;81;21021;-57
2022/03/09 07:35:10;;;;;;;8.45;4.53;;;;;;;-0.45;100.00;147563.06;1727825;83;21000;-59
2022/03/09 07:37:38;;;;;;;20.37;3.60;;;;;;;-0.46;100.00;147559.22;1728429;83;21068;-57
2022/03/09 07:40:07;;;;;;;4.58;2.95;;;;;;;-0.46;100.00;147559.22;1728219;81;21141;-59
2022/03/09 07:42:37;;;;;;;5.25;3.00;;;;;;;-0.46;100.00;147559.22;1728765;81;20996;-58
2022/03/09 07:45:07;;;;;;;5.40;3.05;;;;;;;-0.45;100.00;147561.80;1727949;83;21033;-57
2022/03/09 07:47:35;;;;;;;4.03;3.10;;;;;;;-0.42;100.00;147569.50;1728610;83;21115;-57
2022/03/09 07:50:04;;;;;;;4.37;2.85;;;;;;;-0.39;100.00;147575.95;1723732;81;20988;-57
2022/03/09 07:52:34;;;;;;;7.65;4.20;;;;;;;-0.41;100.00;147572.08;1707198;83;21221;-57
2022/03/09 07:55:02;;;;;;;4.55;2.90;;;;;;;-0.42;100.00;147569.50;1707055;83;21041;-57
2022/03/09 07:57:29;;;;;;;6.37;3.22;;;;;;;-0.45;100.00;147561.80;1706909;84;20997;-58
2022/03/09 07:59:56;;;;;;;7.12;3.25;;;;;;;-0.47;100.00;147556.66;1712480;82;20954;-58
2022/03/09 08:02:23;;;;;;;4.03;2.77;;;;;;;-0.41;100.00;147570.81;1736167;82;21099;-57
2022/03/09 08:04:51;;;;;;;6.62;3.15;;;;;;;-0.39;100.00;147577.22;1736212;82;21059;-57
2022/03/09 08:07:18;;;;;;;5.53;3.35;;;;;;;-0.33;100.00;147591.38;1736320;81;21442;-57
2022/03/09 08:09:46;;;;;;;7.45;3.30;;;;;;;-0.26;100.00;147608.13;1740167;80;21030;-57
2022/03/09 08:12:13;;;;;;;5.60;3.33;;;;;;;-0.23;100.00;147617.09;1740254;81;21047;-57
2022/03/09 08:14:40;;;;;;;6.10;3.72;;;;;;;-0.20;100.00;147623.55;1756361;80;21572;-57
2022/03/09 08:17:08;;;;;;;5.33;3.25;;;;;;;-0.12;100.00;147644.13;1762718;80;21189;-58
2022/03/09 08:19:36;;;;;;;5.35;3.20;;;;;;;-0.09;99.46;147651.88;1742984;81;21080;-58
2022/03/09 08:22:04;;;;;;;8.83;4.65;;;;;;;0.01;99.28;147675.02;1736495;82;21024;-57
2022/03/09 08:24:33;;;;;;;7.70;3.62;;;;;;;0.06;98.61;147687.87;1750637;80;21591;-57
2022/03/09 08:27:00;;;;;;;6.55;3.65;;;;;;;0.12;98.32;147704.63;1768157;80;21066;-57
2022/03/09 08:29:27;;;;;;;5.28;3.37;;;;;;;0.18;98.50;147718.80;1757164;80;21466;-58
2022/03/09 08:31:55;;;;;;;6.70;3.70;;;;;;;0.25;97.83;147735.53;1725659;81;20977;-58
2022/03/09 08:34:23;;;;;;;5.75;2.83;;;;;;;0.26;97.57;147739.37;1725264;83;20960;-58
2022/03/09 08:36:50;;;;;;;4.92;2.85;;;;;;;0.28;96.25;147744.52;1728315;81;21025;-58
2022/03/09 08:39:17;;;;;;;6.05;3.40;;;;;;;0.36;95.63;147763.83;1724263;81;21052;-58
2022/03/09 08:41:44;;;;;;;5.67;2.75;;;;;;;0.42;95.24;147778.00;1707805;82;21171;-58
2022/03/09 08:44:11;;;;;;;5.45;3.12;;;;;;;0.53;94.05;147806.31;1706813;82;21000;-58
2022/03/09 08:46:39;;;;;;;4.70;2.90;;;;;;;0.60;93.38;147823.05;1707238;82;21546;-58
2022/03/09 08:49:06;;;;;;;5.55;2.40;;;;;;;0.64;91.69;147832.08;1707409;82;20953;-58
2022/03/09 08:51:33;;;;;;;5.67;2.75;;;;;;;0.66;90.29;147838.55;1706995;82;21051;-58
2022/03/09 08:54:00;;;;;;;6.40;2.87;;;;;;;0.67;89.33;147839.81;1707521;83;21708;-58
2022/03/09 08:56:28;;;;;;;3.27;2.15;;;;;;;0.68;89.82;147842.38;1706820;84;21029;-58
2022/03/09 08:58:56;;;;;;;4.87;3.05;;;;;;;0.64;89.30;147832.08;1707601;83;20965;-58
2022/03/09 09:01:23;;;;;;;3.92;2.20;;;;;;;0.57;88.64;147815.34;1707296;84;21033;-59
2022/03/09 09:03:50;;;;;;;5.80;2.55;;;;;;;0.56;89.14;147812.77;1707232;83;21783;-58
2022/03/09 09:06:17;;;;;;;4.62;2.37;;;;;;;0.58;88.42;147817.91;1706906;83;21111;-58
2022/03/09 09:08:47;;;;;;;5.15;2.75;;;;;;;0.66;89.25;147837.23;1707513;83;21036;-58
2022/03/09 09:11:15;;;;;;;4.12;3.00;;;;;;;0.76;88.47;147861.70;1764893;80;21056;-59
2022/03/09 09:13:43;;;;;;;4.62;2.87;;;;;;;0.85;87.73;147884.86;1775482;80;20988;-58
2022/03/09 09:16:13;;;;;;;4.85;3.15;;;;;;;1.00;86.50;147922.25;1775582;80;20992;-58
2022/03/09 09:18:40;;;;;;;5.00;2.60;;;;;;;1.13;85.92;147954.45;1773816;80;21087;-57
2022/03/09 09:21:07;;;;;;;6.08;3.55;;;;;;;1.26;85.23;147987.91;1770531;81;20958;-57
2022/03/09 09:23:36;;;;;;;6.00;3.22;;;;;;;1.35;85.13;148009.81;1770498;79;21052;-57
2022/03/09 09:26:03;;;;;;;5.37;3.20;;;;;;;1.45;85.73;148034.31;1770579;81;21064;-59
2022/03/09 09:28:30;;;;;;;3.62;2.70;;;;;;;1.57;85.43;148065.25;1772281;79;21074;-58
2022/03/09 09:30:57;;;;;;;5.03;3.10;;;;;;;1.64;83.84;148081.97;1788180;80;21135;-59
2022/03/09 09:33:24;;;;;;;5.20;3.20;;;;;;;1.66;82.64;148085.86;1787239;80;21057;-59
2022/03/09 09:35:51;;;;;;;6.12;3.37;;;;;;;1.54;79.38;148057.48;1787758;79;21038;-64
2022/03/09 09:38:19;;;;;;;4.87;3.10;;;;;;;1.46;80.50;148035.62;1787807;79;21045;-57
2022/03/09 09:40:46;;;;;;;4.58;3.22;;;;;;;1.41;80.09;148025.27;1788126;78;21018;-57
2022/03/09 09:43:14;;;;;;;5.20;3.33;;;;;;;1.39;80.66;148020.13;1787367;80;21111;-57
2022/03/09 09:45:43;;;;;;;6.78;3.20;;;;;;;1.37;80.37;148014.97;1788024;79;21332;-57
2022/03/09 09:48:10;;;;;;;5.25;3.17;;;;;;;1.31;77.23;147999.53;1787305;80;21042;-58
2022/03/09 09:50:39;;;;;;;9.23;4.30;;;;;;;1.22;77.57;147977.63;1787835;80;21461;-58
2022/03/09 09:53:10;;;;;;;7.05;4.33;;;;;;;1.15;81.60;147959.59;1787391;79;21045;-64
2022/03/09 09:55:38;;;;;;;7.35;4.30;;;;;;;0.98;85.80;147917.06;1787673;79;20988;-62
2022/03/09 09:58:07;;;;;;;7.42;4.80;;;;;;;0.82;89.10;147877.14;1787354;80;20999;-64
2022/03/09 10:00:35;;;;;;;10.82;4.75;;;;;;;0.65;91.57;147834.66;1787655;80;20961;-63
2022/03/09 10:03:04;;;;;;;10.38;6.03;;;;;;;0.49;94.04;147794.75;1787422;80;21044;-62
2022/03/09 10:05:32;;;;;;;10.00;5.92;;;;;;;0.31;96.40;147749.66;1768154;80;21055;-63
2022/03/09 10:08:08;;;;;;;12.15;5.97;;;;;;;0.17;97.82;147716.22;1787512;79;21395;-61
2022/03/09 10:10:44;;;;;;;6.83;4.62;;;;;;;0.09;99.63;147695.59;1786790;79;21008;-63
2022/03/09 10:13:27;;;;;;;11.50;6.90;;;;;;;0.05;99.71;147685.31;1786477;79;21533;-61
2022/03/09 10:16:20;;;;;;;9.90;5.97;;;;;;;0.02;99.99;147677.59;1787597;79;20881;-62
2022/03/09 10:18:51;;;;;;;11.40;5.60;;;;;;;0.05;100.00;147685.31;1787423;79;21024;-63
2022/03/09 10:21:26;;;;;;;8.00;5.22;;;;;;;0.09;97.77;147695.59;1787000;78;21713;-63
2022/03/09 10:24:02;;;;;;;9.00;5.22;;;;;;;0.13;97.40;147705.94;1787228;79;21103;-61
2022/03/09 10:26:43;;;;;;;7.45;4.58;;;;;;;0.23;97.23;147731.66;1787505;80;20928;-63
2022/03/09 10:29:13;;;;;;;10.55;4.72;;;;;;;0.27;91.35;147741.94;1787158;79;21572;-63
2022/03/09 10:31:46;;;;;;;6.78;4.47;;;;;;;0.36;90.48;147763.83;1785935;80;21089;-63
2022/03/09 10:34:23;;;;;;;7.30;4.35;;;;;;;0.49;89.53;147796.02;1785841;80;21119;-63
2022/03/09 10:37:01;;;;;;;7.60;4.72;;;;;;;0.59;87.27;147819.22;1786133;80;21017;-62
2022/03/09 10:39:39;;;;;;;10.05;5.05;;;;;;;0.74;87.36;147857.81;1784429;80;21055;-63
2022/03/09 10:42:25;;;;;;;7.62;4.60;;;;;;;0.89;84.80;147893.89;1785852;80;21606;-62
2022/03/09 10:44:53;;;;;;;7.12;4.05;;;;;;;1.00;83.95;147922.25;1785430;80;21543;-62
2022/03/09 10:47:32;;;;;;;5.87;3.90;;;;;;;1.04;80.74;147932.55;1785439;80;21720;-61
2022/03/09 10:50:14;;;;;;;6.58;4.00;;;;;;;1.04;80.75;147931.23;1785823;80;21481;-61
2022/03/09 10:52:45;;;;;;;8.83;4.17;;;;;;;1.11;80.38;147949.31;1786076;80;21046;-61
2022/03/09 10:55:36;;;;;;;6.37;3.65;;;;;;;1.20;80.31;147971.16;1783243;79;21122;-62
2022/03/09 10:58:22;;;;;;;5.75;3.65;;;;;;;1.23;81.17;147980.19;1787439;79;21079;-61
2022/03/09 11:00:51;;;;;;;5.37;3.17;;;;;;;1.23;79.99;147980.19;1788466;79;21083;-61
2022/03/09 11:03:24;;;;;;;5.50;3.50;;;;;;;1.22;80.64;147977.63;1787672;80;21190;-62
2022/03/09 11:05:55;;;;;;;5.65;3.50;;;;;;;1.21;77.73;147973.73;1787653;80;21560;-60
2022/03/09 11:08:27;;;;;;;6.17;3.47;;;;;;;1.24;77.88;147981.50;1787746;80;21159;-61
2022/03/09 11:10:55;;;;;;;5.30;3.30;;;;;;;1.29;76.19;147994.38;1787886;80;20993;-61
2022/03/09 11:13:25;;;;;;;4.97;3.45;;;;;;;1.35;75.59;148009.81;1787714;79;21013;-60
2022/03/09 11:15:54;;;;;;;4.78;3.05;;;;;;;1.46;76.22;148035.62;1787432;79;20929;-60
2022/03/09 11:18:25;;;;;;;4.70;3.20;;;;;;;1.54;75.63;148056.22;1787721;78;21525;-61
2022/03/09 11:21:04;;;;;;;5.25;3.12;;;;;;;1.62;75.19;148076.81;1787670;79;20945;-62
2022/03/09 11:23:34;;;;;;;4.58;3.27;;;;;;;1.70;73.24;148097.47;1787819;78;20952;-62
2022/03/09 11:26:08;;;;;;;10.20;5.08;;;;;;;1.73;70.88;148102.63;1787491;80;21134;-62
2022/03/09 11:28:39;;;;;;;5.15;3.17;;;;;;;1.70;67.76;148096.16;1784764;79;20933;-63